sensor_id;sensor_type;location;lat;lon;timestamp;P1;durP1;ratioP1;P2;durP2;ratioP2
17596;SDS011;8917;50.942;6.946;2022-09-04T00:00:25;2.80;;;2.50;;
17596;SDS011;8917;50.942;6.946;2022-09-04T00:03:00;3.47;;;3.00;;
17596;SDS011;8917;50.942;6.946;2022-09-04T00:05:30;4.63;;;4.10;;
17596;SDS011;8917;50.942;6.946;2022-09-04T00:08:11;3.20;;;2.90;;
17596;SDS011;8917;50.942;6.946;2022-09-04T00:10:41;3.13;;;2.88;;
17596;SDS011;8917;50.942;6.946;2022-09-04T00:13:14;4.45;;;3.35;;
17596;SDS011;8917;50.942;6.946;2022-09-04T00:15:44;3.40;;;3.03;;
17596;SDS011;8917;50.942;6.946;2022-09-04T00:18:14;3.45;;;2.80;;
17596;SDS011;8917;50.942;6.946;2022-09-04T00:20:47;3.00;;;2.72;;
17596;SDS011;8917;50.942;6.946;2022-09-04T00:23:16;3.00;;;2.75;;
17596;SDS011;8917;50.942;6.946;2022-09-04T00:25:46;2.95;;;2.75;;
17596;SDS011;8917;50.942;6.946;2022-09-04T00:28:18;3.17;;;2.90;;
17596;SDS011;8917;50.942;6.946;2022-09-04T00:30:49;3.30;;;3.00;;
17596;SDS011;8917;50.942;6.946;2022-09-04T00:33:19;3.20;;;3.00;;
17596;SDS011;8917;50.942;6.946;2022-09-04T00:35:50;2.67;;;2.47;;
17596;SDS011;8917;50.942;6.946;2022-09-04T00:38:29;4.38;;;2.60;;
17596;SDS011;8917;50.942;6.946;2022-09-04T00:41:07;3.17;;;2.83;;
17596;SDS011;8917;50.942;6.946;2022-09-04T00:43:45;3.33;;;2.80;;
17596;SDS011;8917;50.942;6.946;2022-09-04T00:46:38;3.05;;;2.85;;
17596;SDS011;8917;50.942;6.946;2022-09-04T00:49:10;3.15;;;2.95;;
17596;SDS011;8917;50.942;6.946;2022-09-04T00:51:43;3.47;;;2.90;;
17596;SDS011;8917;50.942;6.946;2022-09-04T00:54:20;4.57;;;3.20;;
17596;SDS011;8917;50.942;6.946;2022-09-04T00:56:54;3.72;;;3.35;;
17596;SDS011;8917;50.942;6.946;2022-09-04T00:59:30;3.67;;;2.97;;
17596;SDS011;8917;50.942;6.946;2022-09-04T01:02:03;4.40;;;3.13;;
17596;SDS011;8917;50.942;6.946;2022-09-04T01:04:35;3.55;;;3.25;;
17596;SDS011;8917;50.942;6.946;2022-09-04T01:07:18;3.90;;;3.40;;
17596;SDS011;8917;50.942;6.946;2022-09-04T01:09:53;3.38;;;3.08;;
17596;SDS011;8917;50.942;6.946;2022-09-04T01:12:27;3.70;;;3.38;;
17596;SDS011;8917;50.942;6.946;2022-09-04T01:15:02;3.92;;;3.63;;
17596;SDS011;8917;50.942;6.946;2022-09-04T01:17:36;4.10;;;3.70;;
17596;SDS011;8917;50.942;6.946;2022-09-04T01:20:06;4.13;;;3.53;;
17596;SDS011;8917;50.942;6.946;2022-09-04T01:22:45;5.30;;;3.47;;
17596;SDS011;8917;50.942;6.946;2022-09-04T01:25:22;4.22;;;3.83;;
17596;SDS011;8917;50.942;6.946;2022-09-04T01:27:55;4.03;;;3.70;;
17596;SDS011;8917;50.942;6.946;2022-09-04T01:30:25;5.20;;;4.70;;
17596;SDS011;8917;50.942;6.946;2022-09-04T01:32:56;4.40;;;4.00;;
17596;SDS011;8917;50.942;6.946;2022-09-04T01:35:28;4.70;;;4.30;;
17596;SDS011;8917;50.942;6.946;2022-09-04T01:37:58;6.03;;;4.18;;
17596;SDS011;8917;50.942;6.946;2022-09-04T01:40:35;4.25;;;3.85;;
17596;SDS011;8917;50.942;6.946;2022-09-04T01:43:06;6.63;;;5.30;;
17596;SDS011;8917;50.942;6.946;2022-09-04T01:45:53;4.93;;;4.32;;
17596;SDS011;8917;50.942;6.946;2022-09-04T01:48:26;4.38;;;3.97;;
17596;SDS011;8917;50.942;6.946;2022-09-04T01:50:56;4.55;;;4.15;;
17596;SDS011;8917;50.942;6.946;2022-09-04T01:53:25;5.72;;;4.25;;
17596;SDS011;8917;50.942;6.946;2022-09-04T01:55:54;4.47;;;3.88;;
17596;SDS011;8917;50.942;6.946;2022-09-04T01:58:27;6.10;;;4.18;;
17596;SDS011;8917;50.942;6.946;2022-09-04T02:01:02;4.47;;;4.07;;
17596;SDS011;8917;50.942;6.946;2022-09-04T02:03:34;4.47;;;4.07;;
17596;SDS011;8917;50.942;6.946;2022-09-04T02:06:07;6.03;;;4.32;;
17596;SDS011;8917;50.942;6.946;2022-09-04T02:08:41;4.75;;;4.28;;
17596;SDS011;8917;50.942;6.946;2022-09-04T02:11:11;4.25;;;3.85;;
17596;SDS011;8917;50.942;6.946;2022-09-04T02:13:43;3.88;;;3.50;;
17596;SDS011;8917;50.942;6.946;2022-09-04T02:16:18;4.50;;;4.07;;
17596;SDS011;8917;50.942;6.946;2022-09-04T02:18:49;4.82;;;4.40;;
17596;SDS011;8917;50.942;6.946;2022-09-04T02:21:24;5.32;;;4.40;;
17596;SDS011;8917;50.942;6.946;2022-09-04T02:23:55;5.40;;;4.90;;
17596;SDS011;8917;50.942;6.946;2022-09-04T02:26:26;5.38;;;4.72;;
17596;SDS011;8917;50.942;6.946;2022-09-04T02:28:58;6.60;;;4.93;;
17596;SDS011;8917;50.942;6.946;2022-09-04T02:31:31;5.05;;;4.55;;
17596;SDS011;8917;50.942;6.946;2022-09-04T02:34:04;5.35;;;4.85;;
17596;SDS011;8917;50.942;6.946;2022-09-04T02:36:34;5.20;;;4.70;;
17596;SDS011;8917;50.942;6.946;2022-09-04T02:39:06;5.70;;;5.13;;
17596;SDS011;8917;50.942;6.946;2022-09-04T02:41:40;5.22;;;4.72;;
17596;SDS011;8917;50.942;6.946;2022-09-04T02:44:20;6.35;;;4.53;;
17596;SDS011;8917;50.942;6.946;2022-09-04T02:46:53;5.07;;;4.65;;
17596;SDS011;8917;50.942;6.946;2022-09-04T02:49:24;5.63;;;5.00;;
17596;SDS011;8917;50.942;6.946;2022-09-04T02:51:58;5.15;;;4.47;;
17596;SDS011;8917;50.942;6.946;2022-09-04T02:54:34;5.00;;;4.50;;
17596;SDS011;8917;50.942;6.946;2022-09-04T02:57:07;4.88;;;4.45;;
17596;SDS011;8917;50.942;6.946;2022-09-04T02:59:43;4.45;;;4.05;;
17596;SDS011;8917;50.942;6.946;2022-09-04T03:02:15;4.35;;;3.97;;
17596;SDS011;8917;50.942;6.946;2022-09-04T03:04:46;4.65;;;4.25;;
17596;SDS011;8917;50.942;6.946;2022-09-04T03:07:17;4.75;;;4.10;;
17596;SDS011;8917;50.942;6.946;2022-09-04T03:09:47;4.53;;;4.13;;
17596;SDS011;8917;50.942;6.946;2022-09-04T03:12:24;3.97;;;3.67;;
17596;SDS011;8917;50.942;6.946;2022-09-04T03:14:57;4.05;;;3.65;;
17596;SDS011;8917;50.942;6.946;2022-09-04T03:17:26;4.35;;;3.85;;
17596;SDS011;8917;50.942;6.946;2022-09-04T03:19:56;4.30;;;3.92;;
17596;SDS011;8917;50.942;6.946;2022-09-04T03:22:27;5.25;;;4.38;;
17596;SDS011;8917;50.942;6.946;2022-09-04T03:24:58;4.80;;;4.32;;
17596;SDS011;8917;50.942;6.946;2022-09-04T03:27:26;4.55;;;4.15;;
17596;SDS011;8917;50.942;6.946;2022-09-04T03:29:59;4.47;;;4.07;;
17596;SDS011;8917;50.942;6.946;2022-09-04T03:32:30;5.80;;;4.30;;
17596;SDS011;8917;50.942;6.946;2022-09-04T03:35:00;5.63;;;4.35;;
17596;SDS011;8917;50.942;6.946;2022-09-04T03:37:31;5.45;;;4.53;;
17596;SDS011;8917;50.942;6.946;2022-09-04T03:40:06;4.68;;;4.28;;
17596;SDS011;8917;50.942;6.946;2022-09-04T03:42:40;4.60;;;4.20;;
17596;SDS011;8917;50.942;6.946;2022-09-04T03:45:17;5.50;;;3.95;;
17596;SDS011;8917;50.942;6.946;2022-09-04T03:47:49;4.20;;;3.80;;
17596;SDS011;8917;50.942;6.946;2022-09-04T03:50:22;5.43;;;4.30;;
17596;SDS011;8917;50.942;6.946;2022-09-04T03:52:53;4.70;;;4.20;;
17596;SDS011;8917;50.942;6.946;2022-09-04T03:55:30;4.45;;;4.05;;
17596;SDS011;8917;50.942;6.946;2022-09-04T03:58:04;5.40;;;4.93;;
17596;SDS011;8917;50.942;6.946;2022-09-04T04:00:40;4.78;;;4.38;;
17596;SDS011;8917;50.942;6.946;2022-09-04T04:03:17;4.38;;;4.07;;
17596;SDS011;8917;50.942;6.946;2022-09-04T04:05:50;6.13;;;4.10;;
17596;SDS011;8917;50.942;6.946;2022-09-04T04:08:33;5.95;;;4.65;;
17596;SDS011;8917;50.942;6.946;2022-09-04T04:11:07;4.78;;;4.30;;
17596;SDS011;8917;50.942;6.946;2022-09-04T04:13:52;4.85;;;4.40;;
17596;SDS011;8917;50.942;6.946;2022-09-04T04:16:26;5.15;;;4.25;;
17596;SDS011;8917;50.942;6.946;2022-09-04T04:19:01;5.80;;;4.63;;
17596;SDS011;8917;50.942;6.946;2022-09-04T04:21:37;5.10;;;4.53;;
17596;SDS011;8917;50.942;6.946;2022-09-04T04:24:22;4.85;;;4.45;;
17596;SDS011;8917;50.942;6.946;2022-09-04T04:26:57;5.20;;;4.10;;
17596;SDS011;8917;50.942;6.946;2022-09-04T04:29:48;4.72;;;4.18;;
17596;SDS011;8917;50.942;6.946;2022-09-04T04:32:22;5.93;;;4.30;;
17596;SDS011;8917;50.942;6.946;2022-09-04T04:34:55;4.97;;;4.05;;
17596;SDS011;8917;50.942;6.946;2022-09-04T04:37:30;4.45;;;4.05;;
17596;SDS011;8917;50.942;6.946;2022-09-04T04:40:01;5.22;;;4.03;;
17596;SDS011;8917;50.942;6.946;2022-09-04T04:42:33;4.22;;;3.83;;
17596;SDS011;8917;50.942;6.946;2022-09-04T04:45:04;6.47;;;4.50;;
17596;SDS011;8917;50.942;6.946;2022-09-04T04:50:39;4.90;;;3.97;;
17596;SDS011;8917;50.942;6.946;2022-09-04T04:53:11;3.67;;;3.38;;
17596;SDS011;8917;50.942;6.946;2022-09-04T04:55:42;4.15;;;3.72;;
17596;SDS011;8917;50.942;6.946;2022-09-04T04:58:17;4.55;;;3.33;;
17596;SDS011;8917;50.942;6.946;2022-09-04T05:00:48;4.50;;;4.10;;
17596;SDS011;8917;50.942;6.946;2022-09-04T05:03:18;4.60;;;4.20;;
17596;SDS011;8917;50.942;6.946;2022-09-04T05:05:54;4.30;;;3.90;;
17596;SDS011;8917;50.942;6.946;2022-09-04T05:08:30;3.97;;;3.42;;
17596;SDS011;8917;50.942;6.946;2022-09-04T05:11:01;4.30;;;3.90;;
17596;SDS011;8917;50.942;6.946;2022-09-04T05:13:32;4.53;;;3.97;;
17596;SDS011;8917;50.942;6.946;2022-09-04T05:16:03;4.15;;;3.72;;
17596;SDS011;8917;50.942;6.946;2022-09-04T05:18:32;3.80;;;3.50;;
17596;SDS011;8917;50.942;6.946;2022-09-04T05:21:05;7.22;;;4.38;;
17596;SDS011;8917;50.942;6.946;2022-09-04T05:23:35;4.80;;;4.40;;
17596;SDS011;8917;50.942;6.946;2022-09-04T05:26:09;3.92;;;3.63;;
17596;SDS011;8917;50.942;6.946;2022-09-04T05:28:41;4.20;;;3.88;;
17596;SDS011;8917;50.942;6.946;2022-09-04T05:31:12;4.40;;;4.00;;
17596;SDS011;8917;50.942;6.946;2022-09-04T05:33:44;4.20;;;3.90;;
17596;SDS011;8917;50.942;6.946;2022-09-04T05:36:18;4.38;;;3.97;;
17596;SDS011;8917;50.942;6.946;2022-09-04T05:38:51;4.20;;;3.80;;
17596;SDS011;8917;50.942;6.946;2022-09-04T05:41:27;5.03;;;4.25;;
17596;SDS011;8917;50.942;6.946;2022-09-04T05:43:59;5.25;;;4.20;;
17596;SDS011;8917;50.942;6.946;2022-09-04T05:46:35;4.38;;;3.97;;
17596;SDS011;8917;50.942;6.946;2022-09-04T05:49:08;4.85;;;4.28;;
17596;SDS011;8917;50.942;6.946;2022-09-04T05:51:49;4.60;;;4.20;;
17596;SDS011;8917;50.942;6.946;2022-09-04T05:57:26;5.40;;;4.90;;
17596;SDS011;8917;50.942;6.946;2022-09-04T06:00:05;5.22;;;4.70;;
17596;SDS011;8917;50.942;6.946;2022-09-04T06:02:42;6.60;;;4.85;;
17596;SDS011;8917;50.942;6.946;2022-09-04T06:05:14;6.35;;;4.68;;
17596;SDS011;8917;50.942;6.946;2022-09-04T06:07:51;4.28;;;3.90;;
17596;SDS011;8917;50.942;6.946;2022-09-04T06:10:21;4.70;;;4.30;;
17596;SDS011;8917;50.942;6.946;2022-09-04T06:12:54;4.70;;;4.30;;
17596;SDS011;8917;50.942;6.946;2022-09-04T06:15:30;5.00;;;4.50;;
17596;SDS011;8917;50.942;6.946;2022-09-04T06:18:02;7.13;;;5.07;;
17596;SDS011;8917;50.942;6.946;2022-09-04T06:20:38;7.72;;;5.45;;
17596;SDS011;8917;50.942;6.946;2022-09-04T06:23:16;5.13;;;4.63;;
17596;SDS011;8917;50.942;6.946;2022-09-04T06:25:56;4.88;;;4.47;;
17596;SDS011;8917;50.942;6.946;2022-09-04T06:28:34;4.82;;;4.35;;
17596;SDS011;8917;50.942;6.946;2022-09-04T06:31:07;4.72;;;4.25;;
17596;SDS011;8917;50.942;6.946;2022-09-04T06:33:40;5.90;;;4.30;;
17596;SDS011;8917;50.942;6.946;2022-09-04T06:36:19;4.63;;;4.22;;
17596;SDS011;8917;50.942;6.946;2022-09-04T06:38:58;5.65;;;5.15;;
17596;SDS011;8917;50.942;6.946;2022-09-04T06:41:33;4.68;;;4.28;;
17596;SDS011;8917;50.942;6.946;2022-09-04T06:44:06;4.90;;;4.50;;
17596;SDS011;8917;50.942;6.946;2022-09-04T06:46:39;4.72;;;4.32;;
17596;SDS011;8917;50.942;6.946;2022-09-04T06:49:08;4.53;;;4.13;;
17596;SDS011;8917;50.942;6.946;2022-09-04T06:51:41;4.80;;;4.40;;
17596;SDS011;8917;50.942;6.946;2022-09-04T06:54:17;5.03;;;4.50;;
17596;SDS011;8917;50.942;6.946;2022-09-04T06:56:54;5.40;;;4.90;;
17596;SDS011;8917;50.942;6.946;2022-09-04T06:59:30;4.32;;;4.03;;
17596;SDS011;8917;50.942;6.946;2022-09-04T07:02:02;5.60;;;4.13;;
17596;SDS011;8917;50.942;6.946;2022-09-04T07:04:39;5.00;;;4.50;;
17596;SDS011;8917;50.942;6.946;2022-09-04T07:07:11;6.70;;;4.68;;
17596;SDS011;8917;50.942;6.946;2022-09-04T07:09:46;4.50;;;4.10;;
17596;SDS011;8917;50.942;6.946;2022-09-04T07:12:19;4.32;;;3.88;;
17596;SDS011;8917;50.942;6.946;2022-09-04T07:15:03;4.50;;;4.10;;
17596;SDS011;8917;50.942;6.946;2022-09-04T07:17:33;4.38;;;3.97;;
17596;SDS011;8917;50.942;6.946;2022-09-04T07:20:06;5.47;;;3.75;;
17596;SDS011;8917;50.942;6.946;2022-09-04T07:22:45;6.72;;;4.60;;
17596;SDS011;8917;50.942;6.946;2022-09-04T07:25:16;5.00;;;4.50;;
17596;SDS011;8917;50.942;6.946;2022-09-04T07:27:51;5.70;;;5.20;;
17596;SDS011;8917;50.942;6.946;2022-09-04T07:30:20;4.82;;;4.32;;
17596;SDS011;8917;50.942;6.946;2022-09-04T07:32:51;5.22;;;4.72;;
17596;SDS011;8917;50.942;6.946;2022-09-04T07:35:20;5.72;;;4.82;;
17596;SDS011;8917;50.942;6.946;2022-09-04T07:37:51;5.47;;;4.63;;
17596;SDS011;8917;50.942;6.946;2022-09-04T07:40:25;4.88;;;4.47;;
17596;SDS011;8917;50.942;6.946;2022-09-04T07:42:57;6.32;;;5.72;;
17596;SDS011;8917;50.942;6.946;2022-09-04T07:45:27;5.18;;;4.68;;
17596;SDS011;8917;50.942;6.946;2022-09-04T07:47:58;4.88;;;4.43;;
17596;SDS011;8917;50.942;6.946;2022-09-04T07:50:30;6.43;;;4.47;;
17596;SDS011;8917;50.942;6.946;2022-09-04T07:53:02;6.22;;;4.78;;
17596;SDS011;8917;50.942;6.946;2022-09-04T07:55:37;5.47;;;4.82;;
17596;SDS011;8917;50.942;6.946;2022-09-04T07:58:13;5.35;;;4.72;;
17596;SDS011;8917;50.942;6.946;2022-09-04T08:00:48;4.65;;;4.25;;
17596;SDS011;8917;50.942;6.946;2022-09-04T08:03:22;5.03;;;4.50;;
17596;SDS011;8917;50.942;6.946;2022-09-04T08:05:51;4.53;;;4.13;;
17596;SDS011;8917;50.942;6.946;2022-09-04T08:08:50;5.00;;;4.57;;
17596;SDS011;8917;50.942;6.946;2022-09-04T08:11:32;5.10;;;4.53;;
17596;SDS011;8917;50.942;6.946;2022-09-04T08:14:15;4.75;;;4.28;;
17596;SDS011;8917;50.942;6.946;2022-09-04T08:16:47;6.63;;;3.90;;
17596;SDS011;8917;50.942;6.946;2022-09-04T08:19:23;4.63;;;3.95;;
17596;SDS011;8917;50.942;6.946;2022-09-04T08:21:55;4.50;;;4.10;;
17596;SDS011;8917;50.942;6.946;2022-09-04T08:24:31;4.88;;;4.38;;
17596;SDS011;8917;50.942;6.946;2022-09-04T08:27:09;5.55;;;4.25;;
17596;SDS011;8917;50.942;6.946;2022-09-04T08:29:49;4.68;;;4.22;;
17596;SDS011;8917;50.942;6.946;2022-09-04T08:32:25;5.80;;;4.60;;
17596;SDS011;8917;50.942;6.946;2022-09-04T08:34:59;5.28;;;4.78;;
17596;SDS011;8917;50.942;6.946;2022-09-04T08:37:31;5.10;;;4.60;;
17596;SDS011;8917;50.942;6.946;2022-09-04T08:40:13;4.82;;;4.35;;
17596;SDS011;8917;50.942;6.946;2022-09-04T08:42:55;8.35;;;3.83;;
17596;SDS011;8917;50.942;6.946;2022-09-04T08:45:45;5.60;;;4.38;;
17596;SDS011;8917;50.942;6.946;2022-09-04T08:48:21;4.90;;;4.35;;
17596;SDS011;8917;50.942;6.946;2022-09-04T08:51:07;4.80;;;4.30;;
17596;SDS011;8917;50.942;6.946;2022-09-04T08:56:27;5.10;;;4.10;;
17596;SDS011;8917;50.942;6.946;2022-09-04T08:59:16;4.10;;;3.78;;
17596;SDS011;8917;50.942;6.946;2022-09-04T09:02:08;4.13;;;3.72;;
17596;SDS011;8917;50.942;6.946;2022-09-04T09:05:04;4.15;;;3.75;;
17596;SDS011;8917;50.942;6.946;2022-09-04T09:07:50;8.25;;;4.03;;
17596;SDS011;8917;50.942;6.946;2022-09-04T09:10:32;5.10;;;4.15;;
17596;SDS011;8917;50.942;6.946;2022-09-04T09:13:07;4.20;;;3.80;;
17596;SDS011;8917;50.942;6.946;2022-09-04T09:15:47;5.10;;;4.60;;
17596;SDS011;8917;50.942;6.946;2022-09-04T09:18:31;5.15;;;4.30;;
17596;SDS011;8917;50.942;6.946;2022-09-04T09:21:04;4.57;;;3.88;;
17596;SDS011;8917;50.942;6.946;2022-09-04T09:23:38;3.70;;;3.40;;
17596;SDS011;8917;50.942;6.946;2022-09-04T09:26:18;4.57;;;4.00;;
17596;SDS011;8917;50.942;6.946;2022-09-04T09:29:14;3.65;;;3.22;;
17596;SDS011;8917;50.942;6.946;2022-09-04T09:34:48;4.07;;;3.72;;
17596;SDS011;8917;50.942;6.946;2022-09-04T09:42:57;3.47;;;3.13;;
17596;SDS011;8917;50.942;6.946;2022-09-04T09:45:33;3.75;;;3.17;;
17596;SDS011;8917;50.942;6.946;2022-09-04T09:48:14;3.15;;;2.85;;
17596;SDS011;8917;50.942;6.946;2022-09-04T09:51:00;4.18;;;3.45;;
17596;SDS011;8917;50.942;6.946;2022-09-04T09:53:49;4.03;;;2.80;;
17596;SDS011;8917;50.942;6.946;2022-09-04T09:56:33;4.60;;;3.30;;
17596;SDS011;8917;50.942;6.946;2022-09-04T10:01:58;4.50;;;3.17;;
17596;SDS011;8917;50.942;6.946;2022-09-04T10:04:44;3.78;;;3.08;;
17596;SDS011;8917;50.942;6.946;2022-09-04T10:07:29;6.32;;;3.60;;
17596;SDS011;8917;50.942;6.946;2022-09-04T10:10:07;3.70;;;3.33;;
17596;SDS011;8917;50.942;6.946;2022-09-04T10:13:00;3.08;;;2.88;;
17596;SDS011;8917;50.942;6.946;2022-09-04T10:15:37;3.15;;;2.72;;
17596;SDS011;8917;50.942;6.946;2022-09-04T10:18:19;5.53;;;3.35;;
17596;SDS011;8917;50.942;6.946;2022-09-04T10:21:11;5.15;;;3.85;;
17596;SDS011;8917;50.942;6.946;2022-09-04T10:23:50;3.75;;;3.45;;
17596;SDS011;8917;50.942;6.946;2022-09-04T10:26:28;4.88;;;3.33;;
17596;SDS011;8917;50.942;6.946;2022-09-04T10:29:11;3.63;;;3.33;;
17596;SDS011;8917;50.942;6.946;2022-09-04T10:31:58;3.20;;;2.80;;
17596;SDS011;8917;50.942;6.946;2022-09-04T10:34:41;4.82;;;2.95;;
17596;SDS011;8917;50.942;6.946;2022-09-04T10:37:15;3.63;;;3.30;;
17596;SDS011;8917;50.942;6.946;2022-09-04T10:39:51;3.10;;;2.75;;
17596;SDS011;8917;50.942;6.946;2022-09-04T10:42:40;3.53;;;3.22;;
17596;SDS011;8917;50.942;6.946;2022-09-04T10:45:15;4.95;;;3.60;;
17596;SDS011;8917;50.942;6.946;2022-09-04T10:50:32;4.05;;;3.42;;
17596;SDS011;8917;50.942;6.946;2022-09-04T10:53:07;4.20;;;3.42;;
17596;SDS011;8917;50.942;6.946;2022-09-04T10:55:41;3.88;;;2.65;;
17596;SDS011;8917;50.942;6.946;2022-09-04T10:58:21;4.03;;;3.47;;
17596;SDS011;8917;50.942;6.946;2022-09-04T11:00:59;3.13;;;2.85;;
17596;SDS011;8917;50.942;6.946;2022-09-04T11:03:35;4.75;;;3.45;;
17596;SDS011;8917;50.942;6.946;2022-09-04T11:08:54;3.13;;;2.83;;
17596;SDS011;8917;50.942;6.946;2022-09-04T11:11:40;3.03;;;2.47;;
17596;SDS011;8917;50.942;6.946;2022-09-04T11:14:17;4.20;;;2.80;;
17596;SDS011;8917;50.942;6.946;2022-09-04T11:16:57;6.15;;;3.97;;
17596;SDS011;8917;50.942;6.946;2022-09-04T11:19:35;3.42;;;3.13;;
17596;SDS011;8917;50.942;6.946;2022-09-04T11:25:18;3.65;;;3.20;;
17596;SDS011;8917;50.942;6.946;2022-09-04T11:27:53;2.63;;;2.42;;
17596;SDS011;8917;50.942;6.946;2022-09-04T11:30:25;3.70;;;2.67;;
17596;SDS011;8917;50.942;6.946;2022-09-04T11:33:09;2.72;;;2.47;;
17596;SDS011;8917;50.942;6.946;2022-09-04T11:35:53;3.35;;;2.63;;
17596;SDS011;8917;50.942;6.946;2022-09-04T11:38:29;2.97;;;2.40;;
17596;SDS011;8917;50.942;6.946;2022-09-04T11:44:10;3.22;;;2.95;;
17596;SDS011;8917;50.942;6.946;2022-09-04T11:46:47;5.60;;;3.00;;
17596;SDS011;8917;50.942;6.946;2022-09-04T11:49:23;4.07;;;2.38;;
17596;SDS011;8917;50.942;6.946;2022-09-04T11:52:00;3.10;;;2.80;;
17596;SDS011;8917;50.942;6.946;2022-09-04T11:57:16;3.40;;;2.83;;
17596;SDS011;8917;50.942;6.946;2022-09-04T11:59:57;3.10;;;2.42;;
17596;SDS011;8917;50.942;6.946;2022-09-04T12:02:49;2.95;;;2.65;;
17596;SDS011;8917;50.942;6.946;2022-09-04T12:05:21;3.20;;;2.58;;
17596;SDS011;8917;50.942;6.946;2022-09-04T12:08:14;2.83;;;2.33;;
17596;SDS011;8917;50.942;6.946;2022-09-04T12:10:59;2.92;;;2.50;;
17596;SDS011;8917;50.942;6.946;2022-09-04T12:13:32;2.55;;;2.35;;
17596;SDS011;8917;50.942;6.946;2022-09-04T12:16:12;2.40;;;2.20;;
17596;SDS011;8917;50.942;6.946;2022-09-04T12:18:48;2.63;;;2.30;;
17596;SDS011;8917;50.942;6.946;2022-09-04T12:21:27;3.92;;;2.28;;
17596;SDS011;8917;50.942;6.946;2022-09-04T12:24:06;3.38;;;2.58;;
17596;SDS011;8917;50.942;6.946;2022-09-04T12:26:42;2.40;;;2.20;;
17596;SDS011;8917;50.942;6.946;2022-09-04T12:29:19;3.22;;;2.50;;
17596;SDS011;8917;50.942;6.946;2022-09-04T12:32:03;2.53;;;2.33;;
17596;SDS011;8917;50.942;6.946;2022-09-04T12:34:45;2.60;;;2.40;;
17596;SDS011;8917;50.942;6.946;2022-09-04T12:37:27;3.72;;;2.03;;
17596;SDS011;8917;50.942;6.946;2022-09-04T12:42:43;2.30;;;1.92;;
17596;SDS011;8917;50.942;6.946;2022-09-04T12:45:18;4.15;;;2.47;;
17596;SDS011;8917;50.942;6.946;2022-09-04T12:47:50;2.20;;;2.00;;
17596;SDS011;8917;50.942;6.946;2022-09-04T12:50:24;2.47;;;2.10;;
17596;SDS011;8917;50.942;6.946;2022-09-04T12:53:03;2.58;;;2.15;;
17596;SDS011;8917;50.942;6.946;2022-09-04T12:55:37;3.35;;;2.00;;
17596;SDS011;8917;50.942;6.946;2022-09-04T12:58:11;1.90;;;1.80;;
17596;SDS011;8917;50.942;6.946;2022-09-04T13:00:44;2.35;;;1.77;;
17596;SDS011;8917;50.942;6.946;2022-09-04T13:03:16;1.88;;;1.70;;
17596;SDS011;8917;50.942;6.946;2022-09-04T13:05:48;2.10;;;1.92;;
17596;SDS011;8917;50.942;6.946;2022-09-04T13:08:22;2.55;;;2.35;;
17596;SDS011;8917;50.942;6.946;2022-09-04T13:10:54;2.30;;;1.98;;
17596;SDS011;8917;50.942;6.946;2022-09-04T13:13:26;3.05;;;1.80;;
17596;SDS011;8917;50.942;6.946;2022-09-04T13:15:57;3.65;;;1.80;;
17596;SDS011;8917;50.942;6.946;2022-09-04T13:18:31;1.98;;;1.63;;
17596;SDS011;8917;50.942;6.946;2022-09-04T13:21:06;3.50;;;1.98;;
17596;SDS011;8917;50.942;6.946;2022-09-04T13:23:39;2.20;;;2.10;;
17596;SDS011;8917;50.942;6.946;2022-09-04T13:26:15;3.20;;;2.20;;
17596;SDS011;8917;50.942;6.946;2022-09-04T13:28:47;3.65;;;2.00;;
17596;SDS011;8917;50.942;6.946;2022-09-04T13:31:27;2.30;;;2.10;;
17596;SDS011;8917;50.942;6.946;2022-09-04T13:34:00;1.90;;;1.70;;
17596;SDS011;8917;50.942;6.946;2022-09-04T13:36:31;2.95;;;2.17;;
17596;SDS011;8917;50.942;6.946;2022-09-04T13:39:16;2.58;;;2.38;;
17596;SDS011;8917;50.942;6.946;2022-09-04T13:41:53;2.65;;;2.20;;
17596;SDS011;8917;50.942;6.946;2022-09-04T13:44:32;2.53;;;1.98;;
17596;SDS011;8917;50.942;6.946;2022-09-04T13:47:05;2.60;;;2.10;;
17596;SDS011;8917;50.942;6.946;2022-09-04T13:49:36;2.20;;;2.00;;
17596;SDS011;8917;50.942;6.946;2022-09-04T13:52:06;2.33;;;2.13;;
17596;SDS011;8917;50.942;6.946;2022-09-04T13:54:35;2.65;;;2.28;;
17596;SDS011;8917;50.942;6.946;2022-09-04T13:57:06;2.50;;;2.30;;
17596;SDS011;8917;50.942;6.946;2022-09-04T13:59:36;3.58;;;2.38;;
17596;SDS011;8917;50.942;6.946;2022-09-04T14:02:05;2.40;;;2.10;;
17596;SDS011;8917;50.942;6.946;2022-09-04T14:04:34;4.28;;;2.20;;
17596;SDS011;8917;50.942;6.946;2022-09-04T14:07:07;2.15;;;1.98;;
17596;SDS011;8917;50.942;6.946;2022-09-04T14:09:36;2.50;;;2.30;;
17596;SDS011;8917;50.942;6.946;2022-09-04T14:12:07;2.70;;;2.35;;
17596;SDS011;8917;50.942;6.946;2022-09-04T14:14:47;2.95;;;2.60;;
17596;SDS011;8917;50.942;6.946;2022-09-04T14:17:25;3.60;;;2.28;;
17596;SDS011;8917;50.942;6.946;2022-09-04T14:19:56;2.20;;;2.10;;
17596;SDS011;8917;50.942;6.946;2022-09-04T14:22:29;3.53;;;2.65;;
17596;SDS011;8917;50.942;6.946;2022-09-04T14:25:01;3.05;;;2.40;;
17596;SDS011;8917;50.942;6.946;2022-09-04T14:27:32;2.40;;;2.20;;
17596;SDS011;8917;50.942;6.946;2022-09-04T14:30:04;3.90;;;2.08;;
17596;SDS011;8917;50.942;6.946;2022-09-04T14:32:38;1.88;;;1.70;;
17596;SDS011;8917;50.942;6.946;2022-09-04T14:35:11;2.38;;;1.90;;
17596;SDS011;8917;50.942;6.946;2022-09-04T14:37:48;1.95;;;1.85;;
17596;SDS011;8917;50.942;6.946;2022-09-04T14:40:19;2.22;;;2.00;;
17596;SDS011;8917;50.942;6.946;2022-09-04T14:42:50;4.43;;;2.40;;
17596;SDS011;8917;50.942;6.946;2022-09-04T14:45:26;1.70;;;1.60;;
17596;SDS011;8917;50.942;6.946;2022-09-04T14:47:57;4.55;;;2.03;;
17596;SDS011;8917;50.942;6.946;2022-09-04T14:50:27;2.08;;;1.80;;
17596;SDS011;8917;50.942;6.946;2022-09-04T14:53:00;3.88;;;1.92;;
17596;SDS011;8917;50.942;6.946;2022-09-04T14:55:29;2.00;;;1.90;;
17596;SDS011;8917;50.942;6.946;2022-09-04T14:57:58;2.60;;;1.88;;
17596;SDS011;8917;50.942;6.946;2022-09-04T15:00:28;2.20;;;2.00;;
17596;SDS011;8917;50.942;6.946;2022-09-04T15:02:59;2.00;;;1.90;;
17596;SDS011;8917;50.942;6.946;2022-09-04T15:05:28;3.72;;;2.15;;
17596;SDS011;8917;50.942;6.946;2022-09-04T15:07:59;2.13;;;1.90;;
17596;SDS011;8917;50.942;6.946;2022-09-04T15:10:29;3.20;;;1.98;;
17596;SDS011;8917;50.942;6.946;2022-09-04T15:13:21;2.50;;;1.90;;
17596;SDS011;8917;50.942;6.946;2022-09-04T15:15:55;3.15;;;2.70;;
17596;SDS011;8917;50.942;6.946;2022-09-04T15:18:25;2.60;;;2.40;;
17596;SDS011;8917;50.942;6.946;2022-09-04T15:20:55;5.68;;;5.18;;
17596;SDS011;8917;50.942;6.946;2022-09-04T15:23:25;3.65;;;2.65;;
17596;SDS011;8917;50.942;6.946;2022-09-04T15:25:54;2.38;;;2.17;;
17596;SDS011;8917;50.942;6.946;2022-09-04T15:28:28;2.15;;;1.92;;
17596;SDS011;8917;50.942;6.946;2022-09-04T15:31:01;4.32;;;2.38;;
17596;SDS011;8917;50.942;6.946;2022-09-04T15:33:29;2.25;;;1.95;;
17596;SDS011;8917;50.942;6.946;2022-09-04T15:36:00;2.13;;;1.92;;
17596;SDS011;8917;50.942;6.946;2022-09-04T15:38:30;2.40;;;1.92;;
17596;SDS011;8917;50.942;6.946;2022-09-04T15:40:58;2.40;;;2.20;;
17596;SDS011;8917;50.942;6.946;2022-09-04T15:43:30;3.05;;;1.95;;
17596;SDS011;8917;50.942;6.946;2022-09-04T15:45:59;3.70;;;2.22;;
17596;SDS011;8917;50.942;6.946;2022-09-04T15:48:33;3.40;;;2.20;;
17596;SDS011;8917;50.942;6.946;2022-09-04T15:51:11;2.40;;;2.17;;
17596;SDS011;8917;50.942;6.946;2022-09-04T15:53:41;2.15;;;1.95;;
17596;SDS011;8917;50.942;6.946;2022-09-04T15:56:25;4.28;;;1.95;;
17596;SDS011;8917;50.942;6.946;2022-09-04T15:58:54;3.35;;;2.10;;
17596;SDS011;8917;50.942;6.946;2022-09-04T16:01:25;3.03;;;2.30;;
17596;SDS011;8917;50.942;6.946;2022-09-04T16:03:56;2.55;;;2.13;;
17596;SDS011;8917;50.942;6.946;2022-09-04T16:06:27;8.98;;;2.85;;
17596;SDS011;8917;50.942;6.946;2022-09-04T16:08:59;2.45;;;2.25;;
17596;SDS011;8917;50.942;6.946;2022-09-04T16:11:32;3.42;;;2.35;;
17596;SDS011;8917;50.942;6.946;2022-09-04T16:14:00;2.15;;;2.00;;
17596;SDS011;8917;50.942;6.946;2022-09-04T16:16:29;2.42;;;2.22;;
17596;SDS011;8917;50.942;6.946;2022-09-04T16:19:19;2.25;;;2.10;;
17596;SDS011;8917;50.942;6.946;2022-09-04T16:21:49;2.55;;;2.30;;
17596;SDS011;8917;50.942;6.946;2022-09-04T16:24:20;2.70;;;2.17;;